createdAt,value
2022-12-09T06:01:11.354Z,99132.06
2022-12-09T06:12:09.571Z,99138.50
2022-12-09T06:14:37.094Z,99141.22
2022-12-09T06:17:03.941Z,99146.53
2022-12-09T06:19:31.815Z,99155.34
2022-12-09T06:21:58.978Z,99147.53
2022-12-09T06:24:26.361Z,99143.22
2022-12-09T06:26:54.407Z,99145.00
2022-12-09T06:29:21.888Z,99134.59
2022-12-09T06:31:48.810Z,99139.84
2022-12-09T06:34:16.482Z,99126.78
2022-12-09T06:36:43.563Z,99131.22
2022-12-09T06:39:11.366Z,99122.56
2022-12-09T06:41:41.369Z,99124.34
2022-12-09T06:44:11.009Z,99119.13
2022-12-09T06:46:37.807Z,99116.56
2022-12-09T06:49:05.572Z,99124.47
2022-12-09T06:51:32.643Z,99116.72
2022-12-09T06:53:59.914Z,99125.50
2022-12-09T06:56:27.130Z,99132.59
2022-12-09T06:58:54.763Z,99137.00
2022-12-09T07:01:24.115Z,99138.75
2022-12-09T07:03:55.379Z,99144.00
2022-12-09T07:06:37.318Z,99132.66
2022-12-09T07:09:10.630Z,99141.41
2022-12-09T07:11:37.833Z,99151.91
2022-12-09T07:14:05.313Z,99150.19
2022-12-09T07:16:32.145Z,99148.53
2022-12-09T07:19:00.284Z,99148.59
2022-12-09T07:21:28.358Z,99152.97
2022-12-09T07:23:56.031Z,99153.06
2022-12-09T07:26:22.881Z,99162.69
2022-12-09T07:28:51.191Z,99156.59
2022-12-09T07:31:26.798Z,99165.34
2022-12-09T07:33:56.443Z,99162.75
2022-12-09T07:36:25.832Z,99160.19
2022-12-09T07:38:57.215Z,99163.72
2022-12-09T07:41:24.449Z,99164.59
2022-12-09T07:43:51.775Z,99173.34
2022-12-09T07:46:20.780Z,99172.47
2022-12-09T07:48:49.239Z,99174.22
2022-12-09T07:51:17.205Z,99176.00
2022-12-09T07:53:45.408Z,99173.34
2022-12-09T07:56:17.701Z,99168.97
2022-12-09T07:58:48.001Z,99165.41
2022-12-09T08:01:21.711Z,99164.47
2022-12-09T08:03:50.497Z,99173.19
2022-12-09T08:06:20.481Z,99169.63
2022-12-09T08:08:49.334Z,99180.03
2022-12-09T08:11:24.442Z,99171.28
2022-12-09T08:13:52.461Z,99175.56
2022-12-09T08:16:22.742Z,99168.56
2022-12-09T08:18:51.524Z,99176.31
2022-12-09T08:21:22.111Z,99180.66
2022-12-09T08:23:50.163Z,99189.28
2022-12-09T08:26:20.641Z,99177.88
2022-12-09T08:28:48.548Z,99183.94
2022-12-09T08:31:22.240Z,99185.56
2022-12-09T08:33:49.921Z,99188.13
2022-12-09T08:36:23.088Z,99195.94
2022-12-09T08:38:50.940Z,99189.81
2022-12-09T08:41:36.313Z,99192.34
2022-12-09T08:44:08.874Z,99186.16
2022-12-09T08:46:38.192Z,99192.28
2022-12-09T08:49:05.840Z,99187.00
2022-12-09T08:51:33.976Z,99184.38
2022-12-09T08:54:02.373Z,99183.47
2022-12-09T08:56:29.887Z,99190.34
2022-12-09T08:58:56.617Z,99179.81
2022-12-09T09:01:26.851Z,99185.00
2022-12-09T09:03:53.843Z,99176.19
2022-12-09T09:06:21.196Z,99183.13
2022-12-09T09:08:48.829Z,99181.31
2022-12-09T09:11:19.758Z,99178.72
2022-12-09T09:13:49.208Z,99183.94
2022-12-09T09:16:19.388Z,99185.66
2022-12-09T09:18:47.661Z,99194.31
2022-12-09T09:21:16.869Z,99198.66
2022-12-09T09:23:44.627Z,99197.75
2022-12-09T09:26:16.692Z,99198.59
2022-12-09T09:28:44.553Z,99207.38
2022-12-09T09:31:14.504Z,99202.97
2022-12-09T09:33:43.569Z,99198.75
2022-12-09T09:36:19.488Z,99197.84
2022-12-09T09:38:47.779Z,99204.75
2022-12-09T09:41:56.517Z,99205.59
2022-12-09T09:44:28.905Z,99203.75
2022-12-09T09:46:57.757Z,99202.78
2022-12-09T09:49:36.500Z,99209.66
2022-12-09T09:52:10.309Z,99205.31
2022-12-09T09:54:37.913Z,99202.66
2022-12-09T09:57:57.548Z,99203.50
2022-12-09T10:00:27.821Z,99201.66
2022-12-09T10:03:12.376Z,99201.56
2022-12-09T10:06:17.585Z,99196.28
2022-12-09T10:09:04.823Z,99192.66
2022-12-09T10:11:39.658Z,99192.56
2022-12-09T10:14:16.184Z,99195.13
2022-12-09T10:17:03.437Z,99188.03
2022-12-09T10:19:42.679Z,99181.88
2022-12-09T10:22:18.179Z,99178.28
2022-12-09T10:24:51.124Z,99179.91
2022-12-09T10:27:45.994Z,99177.19
2022-12-09T10:30:15.800Z,99171.06
2022-12-09T10:32:44.091Z,99172.72
2022-12-09T10:35:14.368Z,99163.91
2022-12-09T10:37:42.269Z,99164.81
2022-12-09T10:40:12.175Z,99167.44
2022-12-09T10:43:11.070Z,99167.31
2022-12-09T10:46:16.914Z,99160.31
2022-12-09T10:48:43.152Z,99155.97
2022-12-09T10:51:11.384Z,99148.03
2022-12-09T10:54:06.993Z,99156.75
2022-12-09T10:56:36.823Z,99160.22
2022-12-09T10:59:24.087Z,99163.69
2022-12-09T11:02:13.569Z,99153.97
2022-12-09T11:04:43.437Z,99158.19
2022-12-09T11:07:19.915Z,99154.63
2022-12-09T11:09:59.064Z,99158.00
2022-12-09T11:12:27.355Z,99161.41
2022-12-09T11:15:01.384Z,99164.81
2022-12-09T11:17:38.386Z,99156.00
2022-12-09T11:20:05.687Z,99159.41
2022-12-09T11:22:41.467Z,99153.25
2022-12-09T11:25:11.869Z,99149.69
2022-12-09T11:27:53.252Z,99146.13
2022-12-09T11:30:22.314Z,99138.25
2022-12-09T11:33:19.603Z,99143.53
2022-12-09T11:35:46.906Z,99145.38
2022-12-09T11:38:17.728Z,99143.81
2022-12-09T11:41:13.290Z,99141.06
2022-12-09T11:43:54.759Z,99138.34
2022-12-09T11:46:27.645Z,99133.16
2022-12-09T11:49:12.925Z,99136.69
2022-12-09T11:51:46.843Z,99137.50
2022-12-09T11:54:22.450Z,99137.41
2022-12-09T11:56:51.199Z,99136.38
2022-12-09T11:59:26.409Z,99138.16
2022-12-09T12:02:11.245Z,99126.72
2022-12-09T12:05:00.160Z,99135.38
2022-12-09T12:22:48.006Z,99130.97
2022-12-09T12:25:36.947Z,99131.84
2022-12-09T12:28:22.423Z,99129.22
2022-12-09T12:31:07.559Z,99120.56
2022-12-09T12:34:23.480Z,99123.09
2022-12-09T12:36:53.339Z,99129.13
2022-12-09T12:39:38.170Z,99121.19
2022-12-09T12:42:35.878Z,99117.75
2022-12-09T12:45:36.845Z,99119.56
2022-12-09T12:48:10.383Z,99116.94
2022-12-09T12:50:54.280Z,99123.97
2022-12-09T12:53:37.391Z,99131.06
2022-12-09T12:56:47.066Z,99128.34
2022-12-09T12:59:33.845Z,99123.97
2022-12-09T13:02:28.603Z,99120.41
2022-12-09T13:05:04.015Z,99117.78
2022-12-09T13:07:44.220Z,99110.00
2022-12-09T13:10:19.522Z,99112.50
2022-12-09T13:12:56.522Z,99110.63
2022-12-09T13:15:32.497Z,99105.41
2022-12-09T13:18:03.967Z,99106.31
2022-12-09T13:20:40.958Z,99108.28
2022-12-09T13:23:32.344Z,99110.13
2022-12-09T13:26:06.862Z,99110.81
2022-12-09T13:28:49.802Z,99113.44
2022-12-09T13:31:20.462Z,99107.38
2022-12-09T13:34:04.845Z,99113.53
2022-12-09T13:36:41.943Z,99109.97
2022-12-09T13:39:13.675Z,99100.28
2022-12-09T13:42:01.174Z,99096.91
2022-12-09T13:44:34.795Z,99096.91
2022-12-09T13:47:26.162Z,99097.84
2022-12-09T13:49:59.411Z,99099.53
2022-12-09T13:52:41.031Z,99101.19
2022-12-09T13:55:31.925Z,99104.56
2022-12-09T13:58:16.874Z,99110.66
2022-12-09T14:01:04.321Z,99104.50
2022-12-09T14:03:34.688Z,99100.22
2022-12-09T14:06:18.491Z,99099.38
2022-12-09T14:08:50.985Z,99102.97
2022-12-09T14:11:47.330Z,99101.25
2022-12-09T14:14:23.325Z,99106.50
2022-12-09T14:16:51.658Z,99099.53
2022-12-09T14:19:24.574Z,99096.06
2022-12-09T14:22:25.119Z,99093.53
2022-12-09T14:24:54.101Z,99097.09
2022-12-09T14:27:31.908Z,99089.38
2022-12-09T14:30:21.731Z,99090.31
2022-12-09T14:32:54.720Z,99092.22
2022-12-09T14:35:46.616Z,99092.34
2022-12-09T14:38:28.397Z,99089.81
2022-12-09T14:41:15.790Z,99087.31
2022-12-09T14:44:03.072Z,99086.53
2022-12-09T14:46:36.191Z,99094.56
2022-12-09T14:49:13.515Z,99092.91
2022-12-09T14:51:54.231Z,99093.06
2022-12-09T14:54:28.391Z,99093.22
2022-12-09T14:56:59.695Z,99103.84
2022-12-09T14:59:30.511Z,99108.31
2022-12-09T15:01:59.942Z,99101.44
2022-12-09T15:04:31.117Z,99113.78
2022-12-09T15:07:16.137Z,99108.72
2022-12-09T15:10:04.690Z,99110.59
2022-12-09T15:12:43.631Z,99110.69
2022-12-09T15:15:10.560Z,99111.66
2022-12-09T15:17:56.914Z,99109.16
2022-12-09T15:20:39.394Z,99106.66
2022-12-09T15:23:17.655Z,99109.38
2022-12-09T15:25:54.223Z,99106.84
2022-12-09T15:28:26.561Z,99111.28
2022-12-09T15:31:06.621Z,99113.13
2022-12-09T15:33:49.437Z,99103.66
2022-12-09T15:36:22.499Z,99111.63
2022-12-09T15:39:07.155Z,99097.72
2022-12-09T15:42:01.715Z,99117.00
2022-12-09T15:44:33.301Z,99114.50
2022-12-09T15:47:05.629Z,99118.94
2022-12-09T15:49:45.691Z,99119.91
2022-12-09T15:52:15.018Z,99131.28
2022-12-09T15:54:44.934Z,99121.81
2022-12-09T15:57:15.851Z,99133.22
2022-12-09T15:59:50.920Z,99133.28
2022-12-09T16:02:26.710Z,99130.69
2022-12-09T16:04:55.345Z,99136.84
2022-12-09T16:07:25.472Z,99134.25
2022-12-09T16:10:01.630Z,99140.44
2022-12-09T16:12:32.775Z,99143.09
2022-12-09T16:14:59.485Z,99140.53
2022-12-09T16:17:29.552Z,99140.56
2022-12-09T16:19:56.344Z,99151.09
2022-12-09T16:22:28.288Z,99152.00
2022-12-09T16:25:14.084Z,99151.19
2022-12-09T16:27:46.494Z,99150.41
2022-12-09T16:30:16.255Z,99148.69
2022-12-09T16:32:46.179Z,99147.84
2022-12-09T16:35:18.710Z,99144.41
2022-12-09T16:37:58.063Z,99136.63
2022-12-09T16:40:24.562Z,99141.88
2022-12-09T16:43:15.739Z,99147.09
2022-12-09T16:45:50.704Z,99142.78
2022-12-09T16:48:19.320Z,99141.03
2022-12-09T16:50:48.741Z,99148.03
2022-12-09T16:53:18.197Z,99147.19
2022-12-09T16:55:56.881Z,99144.59
2022-12-09T16:58:23.863Z,99154.19
2022-12-09T17:00:50.940Z,99152.44
2022-12-09T17:03:21.762Z,99156.81
2022-12-09T17:05:48.400Z,99156.81
2022-12-09T17:08:15.302Z,99154.19
2022-12-09T17:10:42.341Z,99159.34
2022-12-09T17:13:12.366Z,99158.50
2022-12-09T17:15:41.533Z,99160.19
2022-12-09T17:18:09.648Z,99161.03
2022-12-09T17:20:37.740Z,99163.63
2022-12-09T17:23:05.609Z,99159.25
2022-12-09T17:25:33.222Z,99158.34
2022-12-09T17:28:02.636Z,99154.81
2022-12-09T17:30:29.579Z,99160.84
2022-12-09T17:32:59.135Z,99162.56
2022-12-09T17:35:25.863Z,99164.28
2022-12-09T17:37:53.038Z,99165.13
2022-12-09T17:40:19.626Z,99167.69
2022-12-09T17:42:46.813Z,99174.59
2022-12-09T17:45:13.447Z,99172.84
2022-12-09T17:47:40.695Z,99172.84
2022-12-09T17:50:07.670Z,99177.19
2022-12-09T17:52:35.703Z,99178.91
2022-12-09T17:55:02.338Z,99173.63
2022-12-09T17:57:29.281Z,99179.69
2022-12-09T17:59:56.534Z,99178.78
2022-12-09T18:02:23.698Z,99174.41
2022-12-09T18:04:50.852Z,99177.88
2022-12-09T18:07:17.596Z,99174.38
2022-12-09T18:09:47.523Z,99178.69
2022-12-09T18:12:16.511Z,99180.38
2022-12-09T18:14:43.698Z,99176.91
2022-12-09T18:17:10.275Z,99188.19
2022-12-09T18:19:38.094Z,99182.03
2022-12-09T18:22:04.728Z,99181.13
2022-12-09T18:24:33.683Z,99181.97
2022-12-09T18:27:00.307Z,99190.69
2022-12-09T18:29:27.547Z,99182.81
2022-12-09T18:31:57.410Z,99191.47
2022-12-09T18:34:26.082Z,99190.56
2022-12-09T18:36:52.759Z,99190.56
2022-12-09T18:39:20.279Z,99195.75
2022-12-09T18:41:47.553Z,99195.72
2022-12-09T18:44:16.307Z,99192.25
2022-12-09T18:46:48.582Z,99197.47
2022-12-09T18:49:24.158Z,99206.19
2022-12-09T18:51:52.623Z,99197.47
2022-12-09T18:54:23.675Z,99199.22
2022-12-09T18:56:51.326Z,99201.84
2022-12-09T18:59:20.919Z,99204.44
2022-12-09T19:01:48.476Z,99203.53
2022-12-09T19:04:19.351Z,99196.53
2022-12-09T19:06:48.146Z,99195.63
2022-12-09T19:09:20.114Z,99202.63
2022-12-09T19:11:49.389Z,99203.44
2022-12-09T19:14:17.802Z,99200.81
2022-12-09T19:16:45.689Z,99199.97
2022-12-09T19:19:14.508Z,99199.97
2022-12-09T19:21:42.293Z,99208.66
2022-12-09T19:24:31.362Z,99204.25
2022-12-09T19:26:58.638Z,99211.28
2022-12-09T19:29:27.849Z,99206.91
2022-12-09T19:31:57.429Z,99202.53
2022-12-09T19:34:28.624Z,99209.50
2022-12-09T19:36:58.587Z,99214.75
2022-12-09T19:39:29.870Z,99206.03
2022-12-09T19:42:01.535Z,99209.53
2022-12-09T19:44:59.811Z,99213.03
2022-12-09T19:47:15.692Z,99211.34
2022-12-09T19:49:44.265Z,99214.00
2022-12-09T19:52:16.051Z,99210.53
2022-12-09T19:54:42.666Z,99213.19
2022-12-09T19:57:09.554Z,99216.75
2022-12-09T19:59:37.572Z,99217.66
2022-12-09T20:02:06.711Z,99221.16
2022-12-09T20:04:51.209Z,99220.31
2022-12-09T20:07:20.290Z,99215.97
2022-12-09T20:09:47.417Z,99220.41
2022-12-09T20:12:14.794Z,99222.19
2022-12-09T20:14:41.948Z,99217.06
2022-12-09T20:17:09.211Z,99217.13
2022-12-09T20:19:36.645Z,99212.78
2022-12-09T20:22:04.685Z,99218.06
2022-12-09T20:24:31.288Z,99219.84
2022-12-09T20:26:58.801Z,99219.94
2022-12-09T20:29:25.441Z,99226.13
2022-12-09T20:31:53.493Z,99219.22
2022-12-09T20:34:20.105Z,99222.72
2022-12-09T20:36:47.499Z,99219.28
2022-12-09T20:39:20.244Z,99220.16
2022-12-09T20:41:49.058Z,99224.56
2022-12-09T20:44:16.749Z,99222.88
2022-12-09T20:46:50.091Z,99216.81
2022-12-09T20:49:17.301Z,99220.34
2022-12-09T20:51:45.567Z,99229.94
2022-12-09T20:54:12.876Z,99228.25
2022-12-09T20:56:40.728Z,99228.31
2022-12-09T20:59:09.929Z,99236.19
2022-12-09T21:01:38.466Z,99230.16
2022-12-09T21:04:06.779Z,99236.28
2022-12-09T21:06:37.167Z,99239.75
2022-12-09T21:09:06.666Z,99237.19
2022-12-09T21:11:34.339Z,99243.31
2022-12-09T21:14:03.467Z,99241.59
2022-12-09T21:16:32.826Z,99242.50
2022-12-09T21:19:02.504Z,99241.66
2022-12-09T21:21:31.894Z,99246.91
2022-12-09T21:24:00.499Z,99250.41
2022-12-09T21:26:27.843Z,99241.72
2022-12-09T21:28:55.066Z,99246.09
